createdAt,value
2023-11-01T00:02:17.876Z,11.19
2023-11-01T00:04:44.893Z,11.14
2023-11-01T00:07:11.931Z,11.11
2023-11-01T00:09:38.910Z,11.22
2023-11-01T00:12:06.056Z,11.25
2023-11-01T00:14:33.110Z,11.30
2023-11-01T00:17:00.083Z,11.30
2023-11-01T00:19:27.109Z,11.27
2023-11-01T00:21:54.000Z,11.26
2023-11-01T00:24:20.982Z,10.95
2023-11-01T00:26:47.937Z,10.95
2023-11-01T00:29:14.982Z,11.09
2023-11-01T00:31:41.956Z,11.15
2023-11-01T00:34:09.052Z,11.21
2023-11-01T00:36:36.020Z,11.29
2023-11-01T00:39:06.048Z,11.32
2023-11-01T00:41:32.995Z,11.35
2023-11-01T00:44:00.483Z,11.30
2023-11-01T00:46:28.516Z,11.35
2023-11-01T00:48:55.450Z,11.37
2023-11-01T00:51:22.428Z,11.40
2023-11-01T00:53:49.400Z,11.43
2023-11-01T00:56:16.511Z,11.41
2023-11-01T00:58:44.866Z,11.44
2023-11-01T01:01:11.990Z,11.45
2023-11-01T01:03:39.075Z,11.45
2023-11-01T01:06:06.415Z,11.47
2023-11-01T01:08:33.788Z,11.53
2023-11-01T01:11:00.738Z,11.55
2023-11-01T01:13:28.686Z,11.60
2023-11-01T01:15:55.670Z,11.60
2023-11-01T01:18:22.788Z,11.65
2023-11-01T01:20:49.808Z,11.68
2023-11-01T01:23:19.257Z,11.70
2023-11-01T01:25:46.269Z,11.70
2023-11-01T01:28:13.203Z,11.70
2023-11-01T01:30:40.173Z,11.74
2023-11-01T01:33:07.502Z,11.77
2023-11-01T01:35:34.576Z,11.77
2023-11-01T01:38:04.255Z,11.80
2023-11-01T01:40:35.573Z,11.82
2023-11-01T01:43:16.959Z,11.80
2023-11-01T01:45:44.002Z,11.80
2023-11-01T01:48:11.288Z,11.83
2023-11-01T01:50:38.245Z,11.87
2023-11-01T01:53:05.197Z,11.85
2023-11-01T01:55:32.284Z,11.85
2023-11-01T01:58:00.631Z,11.89
2023-11-01T02:00:29.306Z,11.90
2023-11-01T02:02:56.540Z,11.95
2023-11-01T02:05:24.620Z,12.00
2023-11-01T02:07:53.980Z,12.02
2023-11-01T02:10:20.947Z,12.05
2023-11-01T02:12:48.026Z,12.08
2023-11-01T02:15:14.973Z,12.09
2023-11-01T02:17:42.065Z,12.13
2023-11-01T02:20:29.404Z,12.13
2023-11-01T02:22:57.241Z,12.11
2023-11-01T02:25:25.603Z,12.19
2023-11-01T02:27:52.843Z,12.20
2023-11-01T02:30:19.736Z,12.20
2023-11-01T02:32:49.807Z,12.22
2023-11-01T02:35:17.120Z,12.23
2023-11-01T02:37:44.229Z,12.27
2023-11-01T02:40:11.730Z,12.24
2023-11-01T02:42:41.781Z,12.28
2023-11-01T02:45:10.676Z,12.32
2023-11-01T02:47:41.044Z,12.33
2023-11-01T02:50:09.812Z,12.33
2023-11-01T02:52:37.216Z,12.37
2023-11-01T02:55:06.517Z,12.36
2023-11-01T02:57:33.893Z,12.37
2023-11-01T03:00:01.260Z,12.31
2023-11-01T03:02:28.403Z,12.26
2023-11-01T03:04:55.326Z,12.31
2023-11-01T03:07:26.448Z,12.36
2023-11-01T03:09:53.391Z,12.30
2023-11-01T03:12:20.456Z,12.32
2023-11-01T03:14:47.369Z,12.29
2023-11-01T03:17:14.262Z,12.33
2023-11-01T03:19:41.589Z,12.35
2023-11-01T03:22:08.624Z,12.34
2023-11-01T03:24:35.570Z,12.29
2023-11-01T03:27:02.574Z,12.27
2023-11-01T03:29:29.862Z,12.27
2023-11-01T03:31:56.821Z,12.24
2023-11-01T03:34:26.199Z,12.24
2023-11-01T03:36:54.127Z,12.20
2023-11-01T03:39:21.052Z,12.18
2023-11-01T03:41:48.160Z,12.07
2023-11-01T03:44:15.246Z,12.16
2023-11-01T03:46:42.216Z,12.16
2023-11-01T03:49:09.260Z,12.17
2023-11-01T03:51:36.309Z,12.17
2023-11-01T03:54:03.374Z,12.19
2023-11-01T03:56:30.406Z,12.19
2023-11-01T03:58:57.466Z,12.21
2023-11-01T04:01:24.560Z,12.16
2023-11-01T04:03:51.732Z,12.15
2023-11-01T04:06:18.707Z,12.15
2023-11-01T04:08:45.679Z,12.09
2023-11-01T04:11:15.650Z,12.10
2023-11-01T04:13:42.603Z,12.09
2023-11-01T04:16:10.436Z,12.13
2023-11-01T04:18:40.254Z,12.15
2023-11-01T04:21:07.228Z,12.16
2023-11-01T04:23:36.103Z,12.03
2023-11-01T04:26:03.060Z,11.90
2023-11-01T04:28:30.031Z,11.97
2023-11-01T04:30:57.296Z,12.01
2023-11-01T04:33:24.295Z,12.06
2023-11-01T04:35:55.071Z,12.02
2023-11-01T04:38:22.328Z,12.07
2023-11-01T04:40:50.776Z,12.06
2023-11-01T04:43:19.206Z,12.12
2023-11-01T04:45:49.297Z,12.17
2023-11-01T04:48:16.683Z,12.19
2023-11-01T04:50:49.691Z,12.24
2023-11-01T04:53:17.158Z,12.24
2023-11-01T04:55:46.790Z,12.33
2023-11-01T04:58:14.729Z,12.36
2023-11-01T05:00:42.006Z,12.39
2023-11-01T05:03:09.232Z,12.39
2023-11-01T05:05:36.309Z,12.47
2023-11-01T05:08:04.588Z,12.54
2023-11-01T05:10:31.978Z,12.62
2023-11-01T05:12:59.167Z,12.64
2023-11-01T05:15:26.094Z,12.66
2023-11-01T05:17:53.068Z,12.77
2023-11-01T05:20:20.015Z,12.84
2023-11-01T05:22:46.925Z,12.89
2023-11-01T05:25:17.043Z,13.01
2023-11-01T05:27:44.409Z,13.14
2023-11-01T05:30:12.017Z,13.26
2023-11-01T05:32:39.000Z,13.24
2023-11-01T05:35:06.234Z,13.40
2023-11-01T05:37:33.229Z,13.53
2023-11-01T05:40:00.174Z,13.63
2023-11-01T05:42:27.239Z,13.60
2023-11-01T05:44:54.267Z,13.58
2023-11-01T05:47:21.297Z,13.53
2023-11-01T05:49:48.283Z,13.57
2023-11-01T05:52:15.177Z,13.59
2023-11-01T05:54:42.134Z,13.65
2023-11-01T05:57:11.067Z,13.64
2023-11-01T05:59:38.110Z,13.66
2023-11-01T06:02:06.545Z,13.75
2023-11-01T06:04:33.981Z,13.68
2023-11-01T06:07:03.739Z,13.78
2023-11-01T06:09:31.895Z,14.02
2023-11-01T06:11:59.120Z,14.01
2023-11-01T06:14:33.784Z,14.22
2023-11-01T06:17:13.691Z,14.34
2023-11-01T06:19:43.509Z,14.25
2023-11-01T06:25:25.267Z,14.43
2023-11-01T06:27:59.601Z,14.49
2023-11-01T06:30:26.945Z,14.63
2023-11-01T06:32:57.042Z,14.67
2023-11-01T06:35:24.425Z,14.68
2023-11-01T06:37:55.349Z,14.57
2023-11-01T06:40:23.532Z,14.54
2023-11-01T06:42:50.949Z,14.52
2023-11-01T06:45:18.368Z,14.29
2023-11-01T06:47:45.498Z,14.54
2023-11-01T06:50:12.582Z,14.72
2023-11-01T06:52:42.353Z,14.66
2023-11-01T06:55:09.774Z,14.65
2023-11-01T06:57:36.856Z,14.72
2023-11-01T07:00:05.719Z,14.78
2023-11-01T07:02:33.400Z,14.75
2023-11-01T07:05:00.814Z,14.89
2023-11-01T07:07:28.237Z,14.99
2023-11-01T07:09:55.649Z,15.15
2023-11-01T07:12:24.180Z,15.26
2023-11-01T07:14:51.588Z,15.19
2023-11-01T07:17:18.856Z,15.07
2023-11-01T07:19:45.803Z,15.22
2023-11-01T07:22:12.816Z,15.47
2023-11-01T07:24:43.429Z,15.49
2023-11-01T07:27:10.496Z,15.63
2023-11-01T07:29:37.796Z,15.78
2023-11-01T07:32:06.996Z,15.62
2023-11-01T07:34:34.058Z,15.63
2023-11-01T07:37:01.037Z,15.79
2023-11-01T07:39:28.022Z,15.78
2023-11-01T07:41:55.077Z,15.88
2023-11-01T07:44:22.295Z,15.63
2023-11-01T07:46:49.608Z,15.78
2023-11-01T07:49:17.195Z,16.02
2023-11-01T07:51:44.662Z,15.85
2023-11-01T07:54:11.768Z,15.98
2023-11-01T07:56:38.775Z,16.13
2023-11-01T07:59:05.826Z,16.29
2023-11-01T08:01:33.380Z,16.36
2023-11-01T08:04:00.594Z,16.38
2023-11-01T08:06:27.651Z,16.20
2023-11-01T08:08:54.661Z,16.19
2023-11-01T08:11:21.709Z,16.17
2023-11-01T08:13:48.626Z,16.08
2023-11-01T08:16:15.690Z,16.02
2023-11-01T08:18:42.811Z,15.86
2023-11-01T08:21:09.799Z,15.89
2023-11-01T08:23:36.842Z,15.83
2023-11-01T08:26:03.822Z,16.05
2023-11-01T08:28:30.764Z,16.14
2023-11-01T08:30:58.296Z,16.07
2023-11-01T08:33:25.925Z,16.05
2023-11-01T08:35:52.933Z,16.11
2023-11-01T08:38:19.919Z,16.26
2023-11-01T08:40:47.013Z,16.27
2023-11-01T08:43:13.980Z,16.48
2023-11-01T08:45:40.909Z,16.39
2023-11-01T08:48:07.972Z,16.23
2023-11-01T08:50:35.050Z,16.29
2023-11-01T08:53:02.121Z,16.13
2023-11-01T08:55:29.114Z,16.20
2023-11-01T08:57:56.734Z,16.03
2023-11-01T09:00:35.527Z,16.08
2023-11-01T09:03:09.737Z,16.20
2023-11-01T09:05:36.740Z,16.01
2023-11-01T09:08:03.762Z,15.69
2023-11-01T09:10:31.818Z,16.02
2023-11-01T09:12:58.931Z,16.07
2023-11-01T09:15:26.317Z,16.12
2023-11-01T09:17:54.115Z,16.04
2023-11-01T09:20:21.228Z,16.15
2023-11-01T09:22:48.279Z,16.19
2023-11-01T09:25:15.564Z,16.14
2023-11-01T09:27:42.521Z,16.12
2023-11-01T09:30:10.250Z,16.22
2023-11-01T09:32:37.922Z,16.36
2023-11-01T09:35:06.164Z,16.43
2023-11-01T09:37:33.040Z,16.59
2023-11-01T09:39:59.935Z,16.77
2023-11-01T09:42:27.850Z,16.83
2023-11-01T09:44:59.906Z,16.73
2023-11-01T09:47:28.375Z,16.54
2023-11-01T09:49:58.373Z,16.62
2023-11-01T09:52:25.693Z,16.81
2023-11-01T09:54:53.830Z,16.93
2023-11-01T09:57:23.870Z,17.01
2023-11-01T09:59:51.240Z,17.04
2023-11-01T10:02:18.700Z,16.99
2023-11-01T10:04:46.009Z,16.90
2023-11-01T10:07:13.350Z,16.88
2023-11-01T10:09:40.632Z,16.95
2023-11-01T10:12:09.447Z,17.06
2023-11-01T10:14:37.364Z,17.09
2023-11-01T10:17:06.028Z,17.07
2023-11-01T10:19:33.043Z,17.04
2023-11-01T10:22:00.368Z,16.93
2023-11-01T10:24:27.818Z,16.93
2023-11-01T10:26:59.640Z,16.95
2023-11-01T10:29:28.960Z,16.97
2023-11-01T10:31:56.709Z,17.04
2023-11-01T10:34:29.924Z,17.04
2023-11-01T10:36:58.516Z,17.01
2023-11-01T10:39:25.959Z,17.07
2023-11-01T10:41:53.844Z,16.98
2023-11-01T10:44:24.240Z,16.99
2023-11-01T10:46:51.270Z,17.03
2023-11-01T10:49:18.265Z,17.12
2023-11-01T10:51:45.722Z,17.05
2023-11-01T10:54:13.446Z,17.07
2023-11-01T10:56:41.327Z,17.06
2023-11-01T10:59:08.917Z,17.08
2023-11-01T11:01:40.293Z,16.97
2023-11-01T11:04:22.772Z,17.01
2023-11-01T11:06:55.621Z,16.99
2023-11-01T11:09:24.122Z,16.99
2023-11-01T11:12:09.976Z,16.99
2023-11-01T11:14:46.991Z,17.00
2023-11-01T11:17:15.263Z,17.00
2023-11-01T11:20:10.935Z,16.88
2023-11-01T11:23:17.976Z,17.05
2023-11-01T11:25:46.312Z,16.99
2023-11-01T11:28:33.305Z,17.07
2023-11-01T11:31:10.071Z,17.07
2023-11-01T11:33:37.343Z,17.15
2023-11-01T11:36:38.031Z,16.96
2023-11-01T11:39:11.661Z,16.77
2023-11-01T11:41:38.650Z,17.06
2023-11-01T11:44:09.585Z,17.02
2023-11-01T11:46:41.947Z,17.08
2023-11-01T11:49:10.329Z,17.05
2023-11-01T11:51:37.923Z,17.12
2023-11-01T11:54:12.242Z,17.10
2023-11-01T11:56:39.729Z,17.15
2023-11-01T11:59:06.843Z,17.19
2023-11-01T12:01:33.825Z,17.19
2023-11-01T12:04:01.029Z,17.18
2023-11-01T12:06:45.319Z,17.28
2023-11-01T12:09:13.267Z,17.30
2023-11-01T12:11:40.336Z,17.26
2023-11-01T12:14:07.295Z,17.33
2023-11-01T12:16:36.534Z,17.41
2023-11-01T12:19:21.474Z,17.49
2023-11-01T12:21:50.161Z,17.40
2023-11-01T12:24:17.878Z,17.43
2023-11-01T12:27:19.227Z,17.45
2023-11-01T12:29:47.465Z,17.36
2023-11-01T12:32:14.768Z,17.48
2023-11-01T12:34:47.525Z,17.58
2023-11-01T12:37:15.868Z,17.57
2023-11-01T12:40:00.066Z,17.50
2023-11-01T12:42:27.872Z,17.31
2023-11-01T12:44:55.917Z,17.27
2023-11-01T12:47:24.094Z,17.27
2023-11-01T12:49:52.051Z,17.18
2023-11-01T12:52:19.169Z,17.20
2023-11-01T12:54:46.791Z,17.19
2023-11-01T12:57:14.076Z,17.19
2023-11-01T12:59:44.143Z,17.18
2023-11-01T13:02:11.125Z,17.14
2023-11-01T13:04:38.339Z,17.09
2023-11-01T13:07:06.026Z,17.05
2023-11-01T13:09:33.274Z,16.95
2023-11-01T13:12:00.388Z,16.97
2023-11-01T13:14:27.531Z,16.95
2023-11-01T13:16:54.744Z,16.90
2023-11-01T13:19:21.882Z,16.85
2023-11-01T13:21:49.490Z,16.82
2023-11-01T13:24:16.569Z,16.78
2023-11-01T13:26:43.550Z,16.75
2023-11-01T13:29:10.827Z,16.69
2023-11-01T13:31:37.811Z,16.65
2023-11-01T13:34:04.814Z,16.61
2023-11-01T13:36:31.733Z,16.58
2023-11-01T13:38:59.031Z,16.57
2023-11-01T13:41:26.213Z,16.55
2023-11-01T13:43:53.172Z,16.55
2023-11-01T13:46:21.514Z,16.52
2023-11-01T13:48:48.659Z,16.49
2023-11-01T13:51:15.677Z,16.46
2023-11-01T13:53:42.701Z,16.43
2023-11-01T13:56:09.742Z,16.40
2023-11-01T13:58:37.227Z,16.36
2023-11-01T14:01:04.538Z,16.33
2023-11-01T14:03:34.040Z,16.30
2023-11-01T14:06:01.282Z,16.21
2023-11-01T14:08:28.320Z,16.11
2023-11-01T14:10:55.420Z,16.10
2023-11-01T14:13:22.355Z,16.14
2023-11-01T14:15:49.983Z,16.17
2023-11-01T14:18:21.038Z,16.20
2023-11-01T14:20:50.726Z,16.22
2023-11-01T14:23:18.069Z,16.22
2023-11-01T14:25:45.821Z,16.21
2023-11-01T14:28:18.351Z,16.18
2023-11-01T14:30:45.525Z,16.16
2023-11-01T14:33:13.367Z,16.14
2023-11-01T14:35:41.117Z,16.12
2023-11-01T14:38:08.989Z,16.09
2023-11-01T14:40:37.240Z,16.04
2023-11-01T14:43:04.457Z,15.98
2023-11-01T14:45:31.492Z,15.94
2023-11-01T14:47:58.644Z,15.88
2023-11-01T14:50:25.741Z,15.87
2023-11-01T14:52:52.805Z,15.84
2023-11-01T14:55:20.657Z,15.82
2023-11-01T14:57:50.703Z,15.83
2023-11-01T15:00:18.160Z,15.82
2023-11-01T15:02:49.000Z,15.84
2023-11-01T15:05:18.089Z,15.87
2023-11-01T15:07:45.084Z,15.93
2023-11-01T15:10:11.975Z,16.01
2023-11-01T15:12:38.905Z,16.07
2023-11-01T15:15:06.164Z,16.11
2023-11-01T15:17:33.938Z,16.16
2023-11-01T15:20:01.233Z,16.19
2023-11-01T15:22:29.464Z,16.22
2023-11-01T15:24:56.415Z,16.24
2023-11-01T15:27:26.312Z,16.25
2023-11-01T15:29:53.669Z,16.25
2023-11-01T15:32:20.767Z,16.27
2023-11-01T15:34:47.740Z,16.29
2023-11-01T15:37:15.543Z,16.31
2023-11-01T15:39:43.018Z,16.32
2023-11-01T15:42:11.040Z,16.33
2023-11-01T15:44:37.970Z,16.33
2023-11-01T15:47:05.230Z,16.34
2023-11-01T15:49:32.159Z,16.36
2023-11-01T15:52:02.132Z,16.34
2023-11-01T15:54:29.906Z,16.32
2023-11-01T15:56:56.929Z,16.31
2023-11-01T15:59:23.893Z,16.24
2023-11-01T16:01:52.336Z,16.24
2023-11-01T16:04:19.568Z,16.25
2023-11-01T16:06:46.639Z,16.27
2023-11-01T16:09:15.107Z,16.27
2023-11-01T16:11:42.193Z,16.25
2023-11-01T16:14:09.592Z,16.25
2023-11-01T16:16:36.718Z,16.24
2023-11-01T16:19:03.803Z,16.25
2023-11-01T16:21:30.807Z,16.05
2023-11-01T16:23:57.863Z,16.09
2023-11-01T16:26:25.283Z,16.13
2023-11-01T16:28:53.719Z,16.17
2023-11-01T16:31:20.775Z,16.18
2023-11-01T16:33:47.896Z,16.17
2023-11-01T16:36:14.997Z,16.15
2023-11-01T16:38:41.984Z,16.14
2023-11-01T16:41:10.027Z,16.14
2023-11-01T16:43:37.732Z,16.14
2023-11-01T16:46:04.905Z,16.13
2023-11-01T16:48:32.927Z,16.13
2023-11-01T16:51:00.174Z,16.12
2023-11-01T16:53:27.742Z,16.10
2023-11-01T16:55:54.927Z,16.12
2023-11-01T16:58:22.080Z,16.11
2023-11-01T17:00:49.089Z,16.12
2023-11-01T17:03:16.473Z,16.10
2023-11-01T17:05:43.561Z,16.08
2023-11-01T17:08:10.521Z,16.09
2023-11-01T17:10:37.514Z,16.10
2023-11-01T17:13:06.038Z,16.08
2023-11-01T17:15:33.189Z,16.08
2023-11-01T17:18:00.286Z,16.02
2023-11-01T17:20:27.309Z,16.01
2023-11-01T17:22:58.971Z,15.99
2023-11-01T17:25:43.986Z,15.97
2023-11-01T17:28:12.699Z,16.03
2023-11-01T17:30:39.666Z,16.04
2023-11-01T17:33:06.799Z,16.09
2023-11-01T17:35:34.841Z,16.09
2023-11-01T17:38:03.171Z,16.10
2023-11-01T17:40:32.159Z,16.01
2023-11-01T17:42:59.343Z,16.00
2023-11-01T17:45:26.301Z,16.03
2023-11-01T17:47:54.096Z,16.03
2023-11-01T17:50:21.212Z,16.04
2023-11-01T17:52:48.208Z,16.07
2023-11-01T17:55:17.466Z,16.08
2023-11-01T17:57:45.977Z,16.08
2023-11-01T18:00:15.036Z,16.07
2023-11-01T18:03:00.795Z,16.05
2023-11-01T18:05:38.640Z,16.08
2023-11-01T18:08:08.576Z,16.08
2023-11-01T18:10:45.786Z,16.09
2023-11-01T18:13:17.095Z,15.99
2023-11-01T18:16:08.498Z,16.09
2023-11-01T18:18:49.766Z,16.10
2023-11-01T18:21:17.182Z,16.12
2023-11-01T18:23:57.898Z,16.09
2023-11-01T18:26:25.175Z,16.10
2023-11-01T18:28:53.292Z,16.07
2023-11-01T18:31:20.309Z,16.04
2023-11-01T18:34:03.839Z,16.04
2023-11-01T18:36:32.377Z,16.07
2023-11-01T18:39:00.615Z,16.07
2023-11-01T18:41:29.753Z,16.07
2023-11-01T18:43:57.244Z,16.03
2023-11-01T18:46:24.653Z,15.99
2023-11-01T18:48:55.672Z,15.99
2023-11-01T18:51:34.987Z,16.04
2023-11-01T18:54:01.891Z,16.02
2023-11-01T18:56:39.992Z,16.01
2023-11-01T18:59:10.590Z,15.98
2023-11-01T19:01:41.200Z,15.99
2023-11-01T19:04:08.981Z,16.00
2023-11-01T19:06:37.657Z,15.97
2023-11-01T19:09:04.811Z,16.02
2023-11-01T19:11:33.694Z,16.01
2023-11-01T19:14:00.693Z,16.00
2023-11-01T19:16:27.844Z,16.01
2023-11-01T19:18:56.356Z,15.94
2023-11-01T19:21:24.068Z,15.98
2023-11-01T19:23:52.339Z,16.00
2023-11-01T19:26:24.497Z,15.88
2023-11-01T19:28:53.218Z,15.85
2023-11-01T19:31:22.179Z,15.85
2023-11-01T19:33:53.283Z,15.77
2023-11-01T19:36:20.667Z,15.83
2023-11-01T19:38:47.666Z,15.84
2023-11-01T19:41:15.094Z,15.88
2023-11-01T19:43:42.164Z,15.83
2023-11-01T19:46:09.139Z,15.75
2023-11-01T19:48:36.963Z,15.80
2023-11-01T19:51:04.137Z,15.88
2023-11-01T19:53:31.294Z,15.89
2023-11-01T19:55:58.275Z,15.84
2023-11-01T19:58:25.317Z,15.80
2023-11-01T20:00:52.345Z,15.87
2023-11-01T20:03:19.508Z,15.88
2023-11-01T20:05:46.536Z,15.93
2023-11-01T20:08:13.956Z,15.91
2023-11-01T20:10:40.949Z,15.88
2023-11-01T20:13:09.134Z,15.85
2023-11-01T20:15:36.136Z,15.84
2023-11-01T20:18:04.554Z,15.87
2023-11-01T20:20:31.613Z,15.92
2023-11-01T20:22:58.587Z,15.90
2023-11-01T20:25:25.599Z,15.83
2023-11-01T20:27:52.623Z,15.82
2023-11-01T20:30:19.698Z,15.83
2023-11-01T20:32:46.793Z,15.83
2023-11-01T20:35:13.747Z,15.83
2023-11-01T20:37:42.327Z,15.75
2023-11-01T20:40:09.421Z,15.73
2023-11-01T20:42:37.696Z,15.77
2023-11-01T20:45:04.996Z,15.76
2023-11-01T20:47:32.249Z,15.76
2023-11-01T20:49:59.195Z,15.74
2023-11-01T20:52:26.169Z,15.75
2023-11-01T20:54:56.239Z,15.77
2023-11-01T20:57:24.727Z,15.75
2023-11-01T20:59:51.837Z,15.72
2023-11-01T21:02:19.045Z,15.62
2023-11-01T21:04:46.103Z,15.64
2023-11-01T21:07:13.196Z,15.64
2023-11-01T21:09:40.317Z,15.60
2023-11-01T21:12:07.460Z,15.55
2023-11-01T21:14:37.758Z,15.59
2023-11-01T21:17:07.212Z,15.63
2023-11-01T21:19:34.746Z,15.63
2023-11-01T21:22:02.526Z,15.58
2023-11-01T21:24:29.823Z,15.56
2023-11-01T21:27:00.016Z,15.59
2023-11-01T21:29:27.104Z,15.60
2023-11-01T21:31:54.137Z,15.61
2023-11-01T21:34:21.181Z,15.64
2023-11-01T21:36:49.010Z,15.59
2023-11-01T21:39:16.041Z,15.58
2023-11-01T21:41:46.161Z,15.57
2023-11-01T21:44:15.929Z,15.59
2023-11-01T21:46:42.897Z,15.58
2023-11-01T21:49:17.104Z,15.59
2023-11-01T21:51:44.072Z,15.61
2023-11-01T21:54:25.815Z,15.51
2023-11-01T21:56:53.278Z,15.53
2023-11-01T21:59:24.080Z,15.61
2023-11-01T22:01:51.270Z,15.66
2023-11-01T22:04:22.155Z,15.71
2023-11-01T22:06:50.838Z,15.70
2023-11-01T22:09:19.454Z,15.67
2023-11-01T22:11:50.860Z,15.62
2023-11-01T22:14:23.717Z,15.55
2023-11-01T22:16:52.260Z,15.57
2023-11-01T22:19:32.928Z,15.56
2023-11-01T22:22:05.851Z,15.61
2023-11-01T22:24:35.123Z,15.66
2023-11-01T22:27:02.086Z,15.70
2023-11-01T22:29:55.460Z,15.75
2023-11-01T22:32:24.255Z,15.77
2023-11-01T22:34:52.629Z,15.77
2023-11-01T22:37:23.458Z,15.75
2023-11-01T22:39:54.007Z,15.72
2023-11-01T22:42:24.765Z,15.65
2023-11-01T22:44:51.859Z,15.64
2023-11-01T22:47:19.168Z,15.65
2023-11-01T22:49:46.132Z,15.66
2023-11-01T22:52:13.217Z,15.67
2023-11-01T22:54:41.677Z,15.71
2023-11-01T22:57:09.645Z,15.67
2023-11-01T22:59:38.585Z,15.70
2023-11-01T23:02:09.382Z,15.73
2023-11-01T23:04:37.327Z,15.73
2023-11-01T23:07:04.430Z,15.73
2023-11-01T23:09:31.788Z,15.75
2023-11-01T23:11:58.697Z,15.74
2023-11-01T23:14:25.686Z,15.73
2023-11-01T23:16:52.612Z,15.73
2023-11-01T23:19:19.911Z,15.67
2023-11-01T23:21:46.985Z,15.68
2023-11-01T23:24:14.487Z,15.68
2023-11-01T23:26:56.859Z,15.68
2023-11-01T23:29:25.239Z,15.68
2023-11-01T23:31:53.431Z,15.68
2023-11-01T23:34:43.629Z,15.67
2023-11-01T23:37:15.409Z,15.69
2023-11-01T23:39:43.848Z,15.68
2023-11-01T23:42:11.703Z,15.68
2023-11-01T23:44:38.736Z,15.70
2023-11-01T23:47:05.957Z,15.72
2023-11-01T23:49:53.135Z,15.71
2023-11-01T23:52:20.542Z,15.71
2023-11-01T23:54:56.436Z,15.70
2023-11-01T23:57:24.058Z,15.69
2023-11-01T23:59:51.322Z,15.65
